createdAt,value
2023-05-21T00:00:21.166Z,117.84
2023-05-21T00:01:21.200Z,118.92
2023-05-21T00:02:21.233Z,121.68
2023-05-21T00:03:21.348Z,121.49
2023-05-21T00:04:21.354Z,120.30
2023-05-21T00:05:21.390Z,122.18
2023-05-21T00:06:21.478Z,119.86
2023-05-21T00:07:21.439Z,123.29
2023-05-21T00:08:21.517Z,121.35
2023-05-21T00:09:21.488Z,119.76
2023-05-21T00:10:21.595Z,120.79
2023-05-21T00:11:21.609Z,120.45
2023-05-21T00:12:21.649Z,120.74
2023-05-21T00:13:21.673Z,119.95
2023-05-21T00:14:21.731Z,122.94
2023-05-21T00:15:21.782Z,118.00
2023-05-21T00:16:21.849Z,124.29
2023-05-21T00:17:21.860Z,122.61
2023-05-21T00:18:21.898Z,121.62
2023-05-21T00:19:22.002Z,119.99
2023-05-21T00:20:21.984Z,122.33
2023-05-21T00:21:22.023Z,120.29
2023-05-21T00:22:22.043Z,121.39
2023-05-21T00:23:22.110Z,122.67
2023-05-21T00:24:22.108Z,123.89
2023-05-21T00:25:22.184Z,119.36
2023-05-21T00:26:22.202Z,121.78
2023-05-21T00:27:22.237Z,117.98
2023-05-21T00:28:22.283Z,122.10
2023-05-21T00:29:22.359Z,121.98
2023-05-21T00:30:22.411Z,119.57
2023-05-21T00:31:22.495Z,123.45
2023-05-21T00:32:22.498Z,122.31
2023-05-21T00:33:22.493Z,122.03
2023-05-21T00:34:22.543Z,122.19
2023-05-21T00:35:22.624Z,117.50
2023-05-21T00:36:22.623Z,118.12
2023-05-21T00:37:22.670Z,122.21
2023-05-21T00:38:22.715Z,122.06
2023-05-21T00:39:22.730Z,117.78
2023-05-21T00:40:22.790Z,119.72
2023-05-21T00:41:22.823Z,121.74
2023-05-21T00:42:22.864Z,118.95
2023-05-21T00:43:22.940Z,119.43
2023-05-21T00:44:22.950Z,117.55
2023-05-21T00:45:22.984Z,118.48
2023-05-21T00:46:23.124Z,120.70
2023-05-21T00:47:23.139Z,120.32
2023-05-21T00:48:23.125Z,120.43
2023-05-21T00:49:23.188Z,121.59
2023-05-21T00:50:23.220Z,120.08
2023-05-21T00:51:23.284Z,120.14
2023-05-21T00:52:23.305Z,120.21
2023-05-21T00:53:23.344Z,121.72
2023-05-21T00:54:23.393Z,121.50
2023-05-21T00:55:23.454Z,121.33
2023-05-21T00:56:23.464Z,118.64
2023-05-21T00:57:23.484Z,120.51
2023-05-21T00:58:23.516Z,120.44
2023-05-21T00:59:23.625Z,121.93
2023-05-21T01:00:23.649Z,120.56
2023-05-21T01:01:23.766Z,117.98
2023-05-21T01:02:23.805Z,123.07
2023-05-21T01:03:24.039Z,123.67
2023-05-21T01:04:23.867Z,122.84
2023-05-21T01:05:23.874Z,121.62
2023-05-21T01:06:23.921Z,118.06
2023-05-21T01:07:23.983Z,118.55
2023-05-21T01:08:23.979Z,124.26
2023-05-21T01:09:24.029Z,121.59
2023-05-21T01:10:24.069Z,122.21
2023-05-21T01:11:24.133Z,120.76
2023-05-21T01:12:24.183Z,121.23
2023-05-21T01:13:24.216Z,119.65
2023-05-21T01:14:24.266Z,123.41
2023-05-21T01:15:24.308Z,120.49
2023-05-21T01:16:25.289Z,123.51
2023-05-21T01:17:24.519Z,121.69
2023-05-21T01:18:24.481Z,122.63
2023-05-21T01:19:24.507Z,120.70
2023-05-21T01:20:24.549Z,119.62
2023-05-21T01:21:24.543Z,123.16
2023-05-21T01:22:24.619Z,121.64
2023-05-21T01:23:24.643Z,118.81
2023-05-21T01:24:24.717Z,121.95
2023-05-21T01:25:24.778Z,120.95
2023-05-21T01:26:24.792Z,120.26
2023-05-21T01:27:24.811Z,119.81
2023-05-21T01:28:24.885Z,121.71
2023-05-21T01:29:24.898Z,120.79
2023-05-21T01:30:25.041Z,122.64
2023-05-21T01:31:25.010Z,122.00
2023-05-21T01:32:25.075Z,120.72
2023-05-21T01:33:25.212Z,122.02
2023-05-21T01:34:25.132Z,122.10
2023-05-21T01:35:25.185Z,119.55
2023-05-21T01:36:25.226Z,119.39
2023-05-21T01:37:25.270Z,123.89
2023-05-21T01:38:25.322Z,121.32
2023-05-21T01:39:25.331Z,118.99
2023-05-21T01:40:25.409Z,123.82
2023-05-21T01:41:25.411Z,124.52
2023-05-21T01:42:25.474Z,120.33
2023-05-21T01:43:25.522Z,123.00
2023-05-21T01:44:25.545Z,123.56
2023-05-21T01:45:25.607Z,119.68
2023-05-21T01:46:25.722Z,124.22
2023-05-21T01:47:25.721Z,124.06
2023-05-21T01:48:25.746Z,124.80
2023-05-21T01:49:25.829Z,122.97
2023-05-21T01:50:25.872Z,124.87
2023-05-21T01:51:25.860Z,121.64
2023-05-21T01:52:25.922Z,122.15
2023-05-21T01:53:25.956Z,121.96
2023-05-21T01:54:26.011Z,123.67
2023-05-21T01:55:26.078Z,123.15
2023-05-21T01:56:26.143Z,119.67
2023-05-21T01:57:26.192Z,122.29
2023-05-21T01:58:26.189Z,124.38
2023-05-21T01:59:26.260Z,120.15
2023-05-21T02:00:26.303Z,124.53
2023-05-21T02:01:26.338Z,122.24
2023-05-21T02:02:26.404Z,123.80
2023-05-21T02:03:26.538Z,121.66
2023-05-21T02:04:26.444Z,124.15
2023-05-21T02:05:26.528Z,118.60
2023-05-21T02:06:26.536Z,124.99
2023-05-21T02:07:26.619Z,124.41
2023-05-21T02:08:26.632Z,123.14
2023-05-21T02:09:26.665Z,125.01
2023-05-21T02:10:26.735Z,122.61
2023-05-21T02:11:26.751Z,120.90
2023-05-21T02:12:26.771Z,125.98
2023-05-21T02:13:27.093Z,121.87
2023-05-21T02:14:26.866Z,122.05
2023-05-21T02:15:26.978Z,123.40
2023-05-21T02:16:27.013Z,125.65
2023-05-21T02:17:27.030Z,124.01
2023-05-21T02:18:27.044Z,125.17
2023-05-21T02:19:27.178Z,124.09
2023-05-21T02:20:27.160Z,122.05
2023-05-21T02:21:27.244Z,120.94
2023-05-21T02:22:27.226Z,122.62
2023-05-21T02:23:27.284Z,123.04
2023-05-21T02:24:27.310Z,121.72
2023-05-21T02:25:27.340Z,123.29
2023-05-21T02:26:27.420Z,125.89
2023-05-21T02:27:27.455Z,121.89
2023-05-21T02:28:27.471Z,128.38
2023-05-21T02:29:27.529Z,119.97
2023-05-21T02:30:27.609Z,124.99
2023-05-21T02:31:27.626Z,126.90
2023-05-21T02:32:27.710Z,124.25
2023-05-21T02:33:27.710Z,122.97
2023-05-21T02:34:27.826Z,124.18
2023-05-21T02:35:27.841Z,121.71
2023-05-21T02:36:27.834Z,123.23
2023-05-21T02:37:27.861Z,126.12
2023-05-21T02:38:27.927Z,126.07
2023-05-21T02:39:27.971Z,121.14
2023-05-21T02:40:28.053Z,124.26
2023-05-21T02:41:28.066Z,126.49
2023-05-21T02:42:28.104Z,126.11
2023-05-21T02:43:28.144Z,124.48
2023-05-21T02:44:28.180Z,122.32
2023-05-21T02:45:28.257Z,121.32
2023-05-21T02:46:28.363Z,122.79
2023-05-21T02:47:28.402Z,125.10
2023-05-21T02:48:28.383Z,125.53
2023-05-21T02:49:28.424Z,126.94
2023-05-21T02:50:28.561Z,122.76
2023-05-21T02:51:28.507Z,126.83
2023-05-21T02:52:28.563Z,121.57
2023-05-21T02:53:28.586Z,124.21
2023-05-21T02:54:28.608Z,121.97
2023-05-21T02:55:28.690Z,124.79
2023-05-21T02:56:28.717Z,125.06
2023-05-21T02:57:28.758Z,125.89
2023-05-21T02:58:28.792Z,123.51
2023-05-21T02:59:28.881Z,127.17
2023-05-21T03:00:28.998Z,128.43
2023-05-21T03:01:28.982Z,125.47
2023-05-21T03:02:28.990Z,124.36
2023-05-21T03:03:29.114Z,127.48
2023-05-21T03:04:29.087Z,124.07
2023-05-21T03:05:29.143Z,124.91
2023-05-21T03:06:29.163Z,121.20
2023-05-21T03:07:29.148Z,120.85
2023-05-21T03:08:29.239Z,123.58
2023-05-21T03:09:29.235Z,126.37
2023-05-21T03:10:29.316Z,121.80
2023-05-21T03:11:29.358Z,126.74
2023-05-21T03:12:29.407Z,129.57
2023-05-21T03:13:29.461Z,123.41
2023-05-21T03:14:29.509Z,121.63
2023-05-21T03:15:29.523Z,123.86
2023-05-21T03:16:29.576Z,125.19
2023-05-21T03:17:29.635Z,123.17
2023-05-21T03:18:29.665Z,127.00
2023-05-21T03:19:29.767Z,124.25
2023-05-21T03:20:29.782Z,126.96
2023-05-21T03:21:29.764Z,123.01
2023-05-21T03:22:29.792Z,124.59
2023-05-21T03:23:29.851Z,127.04
2023-05-21T03:24:29.905Z,123.47
2023-05-21T03:25:29.949Z,123.64
2023-05-21T03:26:29.971Z,122.31
2023-05-21T03:27:30.066Z,124.76
2023-05-21T03:28:30.116Z,123.33
2023-05-21T03:29:30.144Z,125.58
2023-05-21T03:30:30.165Z,123.37
2023-05-21T03:31:30.257Z,125.21
2023-05-21T03:32:30.304Z,124.37
2023-05-21T03:33:30.295Z,126.53
2023-05-21T03:34:30.333Z,121.39
2023-05-21T03:35:30.378Z,124.94
2023-05-21T03:36:30.429Z,124.66
2023-05-21T03:37:30.488Z,127.08
2023-05-21T03:38:30.544Z,124.54
2023-05-21T03:39:30.556Z,121.07
2023-05-21T03:40:30.646Z,125.64
2023-05-21T03:41:30.655Z,122.93
2023-05-21T03:42:30.720Z,124.03
2023-05-21T03:43:30.754Z,124.45
2023-05-21T03:44:30.786Z,121.84
2023-05-21T03:45:30.856Z,124.23
2023-05-21T03:46:30.956Z,122.98
2023-05-21T03:47:30.921Z,123.12
2023-05-21T03:48:30.974Z,121.66
2023-05-21T03:49:31.026Z,125.28
2023-05-21T03:50:31.029Z,125.47
2023-05-21T03:51:31.101Z,121.19
2023-05-21T03:52:31.147Z,122.70
2023-05-21T03:53:31.162Z,123.75
2023-05-21T03:54:31.191Z,125.53
2023-05-21T03:55:31.253Z,122.22
2023-05-21T03:56:31.267Z,124.94
2023-05-21T03:57:31.339Z,128.05
2023-05-21T03:58:31.402Z,126.11
2023-05-21T03:59:31.406Z,127.29
2023-05-21T04:00:31.461Z,125.31
2023-05-21T04:01:31.511Z,124.54
2023-05-21T04:02:31.608Z,124.95
2023-05-21T04:03:31.851Z,125.63
2023-05-21T04:04:31.670Z,125.88
2023-05-21T04:05:31.705Z,125.57
2023-05-21T04:06:31.738Z,124.22
2023-05-21T04:07:31.776Z,121.99
2023-05-21T04:08:31.828Z,122.85
2023-05-21T04:09:31.916Z,124.75
2023-05-21T04:10:31.972Z,123.02
2023-05-21T04:11:31.968Z,124.70
2023-05-21T04:12:32.097Z,123.04
2023-05-21T04:13:32.111Z,122.70
2023-05-21T04:14:32.074Z,123.15
2023-05-21T04:15:32.156Z,121.65
2023-05-21T04:16:32.168Z,125.01
2023-05-21T04:17:32.230Z,121.00
2023-05-21T04:18:32.246Z,124.62
2023-05-21T04:19:32.505Z,119.70
2023-05-21T04:20:32.384Z,121.16
2023-05-21T04:21:32.378Z,121.14
2023-05-21T04:22:32.460Z,124.35
2023-05-21T04:23:32.513Z,121.06
2023-05-21T04:24:32.543Z,123.59
2023-05-21T04:25:32.638Z,119.02
2023-05-21T04:26:32.606Z,121.64
2023-05-21T04:27:32.670Z,123.24
2023-05-21T04:28:32.695Z,121.35
2023-05-21T04:29:32.766Z,119.52
2023-05-21T04:30:32.837Z,120.86
2023-05-21T04:31:32.858Z,119.96
2023-05-21T04:32:32.926Z,119.42
2023-05-21T04:33:32.917Z,123.23
2023-05-21T04:34:32.978Z,120.60
2023-05-21T04:35:33.206Z,116.14
2023-05-21T04:36:33.084Z,119.61
2023-05-21T04:37:33.097Z,121.75
2023-05-21T04:38:33.134Z,119.59
2023-05-21T04:39:33.219Z,118.61
2023-05-21T04:40:33.287Z,121.25
2023-05-21T04:41:33.212Z,125.48
2023-05-21T04:42:33.261Z,117.51
2023-05-21T04:43:33.241Z,119.33
2023-05-21T04:44:33.194Z,120.72
2023-05-21T04:45:33.240Z,119.67
2023-05-21T04:46:33.208Z,120.00
2023-05-21T04:47:33.239Z,114.64
2023-05-21T04:48:33.190Z,121.59
2023-05-21T04:49:33.185Z,120.15
2023-05-21T04:50:33.172Z,118.70
2023-05-21T04:51:33.172Z,116.99
2023-05-21T04:52:33.130Z,122.45
2023-05-21T04:53:33.132Z,121.56
2023-05-21T04:54:33.149Z,117.54
2023-05-21T04:55:33.120Z,119.13
2023-05-21T04:56:33.106Z,119.66
2023-05-21T04:57:33.105Z,116.85
2023-05-21T04:58:33.066Z,118.39
2023-05-21T04:59:33.112Z,119.40
2023-05-21T05:00:33.148Z,120.53
2023-05-21T05:01:33.081Z,118.13
2023-05-21T05:02:33.108Z,117.93
2023-05-21T05:03:33.082Z,120.14
2023-05-21T05:04:33.064Z,120.37
2023-05-21T05:05:33.084Z,117.91
2023-05-21T05:06:33.023Z,116.92
2023-05-21T05:07:33.028Z,118.79
2023-05-21T05:08:33.027Z,115.56
2023-05-21T05:09:33.001Z,114.26
2023-05-21T05:10:33.016Z,115.70
2023-05-21T05:11:32.988Z,114.65
2023-05-21T05:12:33.041Z,115.57
2023-05-21T05:13:32.996Z,119.41
2023-05-21T05:14:33.001Z,119.81
2023-05-21T05:15:32.981Z,118.09
2023-05-21T05:16:33.039Z,113.10
2023-05-21T05:17:32.964Z,114.39
2023-05-21T05:18:33.016Z,111.82
2023-05-21T05:19:33.080Z,117.83
2023-05-21T05:20:33.140Z,115.03
2023-05-21T05:21:33.170Z,115.86
2023-05-21T05:22:33.173Z,114.71
2023-05-21T05:23:33.231Z,119.06
2023-05-21T05:24:33.302Z,116.97
2023-05-21T05:25:33.378Z,113.14
2023-05-21T05:26:33.383Z,121.56
2023-05-21T05:27:33.420Z,115.44
2023-05-21T05:28:33.469Z,114.90
2023-05-21T05:29:33.599Z,116.42
2023-05-21T05:30:33.616Z,119.28
2023-05-21T05:31:33.635Z,114.30
2023-05-21T05:32:33.687Z,115.02
2023-05-21T05:33:33.689Z,115.75
2023-05-21T05:34:33.720Z,116.08
2023-05-21T05:35:33.880Z,115.52
2023-05-21T05:36:33.845Z,115.78
2023-05-21T05:37:33.850Z,116.79
2023-05-21T05:38:33.892Z,113.27
2023-05-21T05:39:33.966Z,115.70
2023-05-21T05:40:34.033Z,115.10
2023-05-21T05:41:34.075Z,117.59
2023-05-21T05:42:34.067Z,113.92
2023-05-21T05:43:34.104Z,115.54
2023-05-21T05:44:34.154Z,117.25
2023-05-21T05:45:34.523Z,116.63
2023-05-21T05:46:34.280Z,114.40
2023-05-21T05:47:34.343Z,115.12
2023-05-21T05:48:34.355Z,113.23
2023-05-21T05:49:34.372Z,115.77
2023-05-21T05:50:34.478Z,112.20
2023-05-21T05:51:34.472Z,115.38
2023-05-21T05:52:34.532Z,115.89
2023-05-21T05:53:34.579Z,116.62
2023-05-21T05:54:34.606Z,114.58
2023-05-21T05:55:34.859Z,114.80
2023-05-21T05:56:34.694Z,112.48
2023-05-21T05:57:34.715Z,113.17
2023-05-21T05:58:34.775Z,116.35
2023-05-21T05:59:34.810Z,115.99
2023-05-21T06:00:34.961Z,116.37
2023-05-21T06:01:34.923Z,113.01
2023-05-21T06:02:35.049Z,112.33
2023-05-21T06:03:35.123Z,114.74
2023-05-21T06:04:35.057Z,115.12
2023-05-21T06:05:35.372Z,114.45
2023-05-21T06:06:35.123Z,114.33
2023-05-21T06:07:35.161Z,114.79
2023-05-21T06:08:36.701Z,114.09
2023-05-21T06:09:35.203Z,115.96
2023-05-21T06:10:35.214Z,115.79
2023-05-21T06:11:35.187Z,113.51
2023-05-21T06:12:35.223Z,116.76
2023-05-21T06:13:35.218Z,117.34
2023-05-21T06:14:35.171Z,118.69
2023-05-21T06:15:35.449Z,116.19
2023-05-21T06:16:35.211Z,115.93
2023-05-21T06:17:35.163Z,116.66
2023-05-21T06:18:35.166Z,114.48
2023-05-21T06:19:35.162Z,109.10
2023-05-21T06:20:35.188Z,116.17
2023-05-21T06:21:35.125Z,112.72
2023-05-21T06:22:35.142Z,112.70
2023-05-21T06:23:35.127Z,111.45
2023-05-21T06:24:35.113Z,112.66
2023-05-21T06:25:35.417Z,111.22
2023-05-21T06:26:35.091Z,114.68
2023-05-21T06:27:35.164Z,113.42
2023-05-21T06:28:35.098Z,111.47
2023-05-21T06:29:35.083Z,111.44
2023-05-21T06:30:35.054Z,114.73
2023-05-21T06:31:35.053Z,112.62
2023-05-21T06:32:35.091Z,110.76
2023-05-21T06:33:35.103Z,112.02
2023-05-21T06:34:35.009Z,111.41
2023-05-21T06:35:35.286Z,113.15
2023-05-21T06:36:34.994Z,112.75
2023-05-21T06:37:34.988Z,110.86
2023-05-21T06:38:34.999Z,111.13
2023-05-21T06:39:34.973Z,110.26
2023-05-21T06:40:34.997Z,112.42
2023-05-21T06:41:34.991Z,111.27
2023-05-21T06:42:34.975Z,110.41
2023-05-21T06:43:34.972Z,111.79
2023-05-21T06:44:34.932Z,111.53
2023-05-21T06:45:35.134Z,111.40
2023-05-21T06:46:35.195Z,108.78
2023-05-21T06:47:34.974Z,110.91
2023-05-21T06:48:34.897Z,108.06
2023-05-21T06:49:34.897Z,107.73
2023-05-21T06:50:34.905Z,109.40
2023-05-21T06:51:34.899Z,109.40
2023-05-21T06:52:34.896Z,109.11
2023-05-21T06:53:34.911Z,107.71
2023-05-21T06:54:34.883Z,108.71
2023-05-21T06:55:35.197Z,106.44
2023-05-21T06:56:34.879Z,112.26
2023-05-21T06:57:34.866Z,108.25
2023-05-21T06:58:34.893Z,106.65
2023-05-21T06:59:34.859Z,106.15
2023-05-21T07:00:34.848Z,106.90
2023-05-21T07:01:34.903Z,106.52
2023-05-21T07:02:34.966Z,109.63
2023-05-21T07:03:34.860Z,106.54
2023-05-21T07:04:34.843Z,110.77
2023-05-21T07:05:35.253Z,107.25
2023-05-21T07:06:34.852Z,109.17
2023-05-21T07:07:34.993Z,108.24
2023-05-21T07:08:34.970Z,107.97
2023-05-21T07:09:35.029Z,111.13
2023-05-21T07:10:34.958Z,108.79
2023-05-21T07:11:34.996Z,107.92
2023-05-21T07:12:35.038Z,109.26
2023-05-21T07:13:35.054Z,108.92
2023-05-21T07:14:35.039Z,109.25
2023-05-21T07:15:35.256Z,105.70
2023-05-21T07:16:35.133Z,107.17
2023-05-21T07:17:35.165Z,110.59
2023-05-21T07:18:35.159Z,108.55
2023-05-21T07:19:35.171Z,113.32
2023-05-21T07:20:35.241Z,106.37
2023-05-21T07:21:35.232Z,107.85
2023-05-21T07:22:35.229Z,107.91
2023-05-21T07:23:35.247Z,105.06
2023-05-21T07:24:35.320Z,105.15
2023-05-21T07:25:35.593Z,105.48
2023-05-21T07:26:35.339Z,104.21
2023-05-21T07:27:35.371Z,108.03
2023-05-21T07:28:35.396Z,103.44
2023-05-21T07:29:35.434Z,105.60
2023-05-21T07:30:35.431Z,103.77
2023-05-21T07:31:35.602Z,103.42
2023-05-21T07:32:35.485Z,103.34
2023-05-21T07:33:35.496Z,109.75
2023-05-21T07:34:35.519Z,104.71
2023-05-21T07:35:35.749Z,102.84
2023-05-21T07:36:35.555Z,103.52
2023-05-21T07:37:35.632Z,104.54
2023-05-21T07:38:35.636Z,103.45
2023-05-21T07:39:35.611Z,103.84
2023-05-21T07:40:35.663Z,104.40
2023-05-21T07:41:35.680Z,103.41
2023-05-21T07:42:35.671Z,101.73
2023-05-21T07:43:35.702Z,106.01
2023-05-21T07:44:35.742Z,104.68
2023-05-21T07:45:35.993Z,102.08
2023-05-21T07:46:35.827Z,104.09
2023-05-21T07:47:35.946Z,103.44
2023-05-21T07:48:35.915Z,102.60
2023-05-21T07:49:35.809Z,102.89
2023-05-21T07:50:35.869Z,103.60
2023-05-21T07:51:35.859Z,101.53
2023-05-21T07:52:36.136Z,99.11
2023-05-21T07:53:35.909Z,101.08
2023-05-21T07:54:35.935Z,103.39
2023-05-21T07:55:36.217Z,103.05
2023-05-21T07:56:35.932Z,104.22
2023-05-21T07:57:35.958Z,100.28
2023-05-21T07:58:35.991Z,100.43
2023-05-21T07:59:35.991Z,105.72
2023-05-21T08:00:36.042Z,100.85
2023-05-21T08:01:36.030Z,103.59
2023-05-21T08:02:36.110Z,101.59
2023-05-21T08:03:36.196Z,101.84
2023-05-21T08:04:38.525Z,102.54
2023-05-21T08:05:36.269Z,102.60
2023-05-21T08:06:36.106Z,102.74
2023-05-21T08:07:36.067Z,100.61
2023-05-21T08:08:36.058Z,101.89
2023-05-21T08:09:36.051Z,103.31
2023-05-21T08:10:36.052Z,101.85
2023-05-21T08:11:36.225Z,103.16
2023-05-21T08:12:36.036Z,103.98
2023-05-21T08:13:36.043Z,103.54
2023-05-21T08:14:36.020Z,100.91
2023-05-21T08:15:36.209Z,103.23
2023-05-21T08:16:36.223Z,101.81
2023-05-21T08:17:36.029Z,104.09
2023-05-21T08:18:36.080Z,105.19
2023-05-21T08:19:36.008Z,101.16
2023-05-21T08:20:36.053Z,102.37
2023-05-21T08:21:43.582Z,101.44
2023-05-21T08:22:35.975Z,101.97
2023-05-21T08:23:35.961Z,102.81
2023-05-21T08:24:35.941Z,102.87
2023-05-21T08:25:36.159Z,103.58
2023-05-21T08:26:35.943Z,103.63
2023-05-21T08:27:35.947Z,100.78
2023-05-21T08:28:35.905Z,103.91
2023-05-21T08:29:35.917Z,103.66
2023-05-21T08:30:35.902Z,104.20
2023-05-21T08:31:35.938Z,101.94
2023-05-21T08:32:35.919Z,98.55
2023-05-21T08:33:35.877Z,98.82
2023-05-21T08:34:35.885Z,97.70
2023-05-21T08:35:36.055Z,99.19
2023-05-21T08:36:35.869Z,98.82
2023-05-21T08:37:35.830Z,100.63
2023-05-21T08:38:35.840Z,98.11
2023-05-21T08:39:35.868Z,94.83
2023-05-21T08:40:35.954Z,98.33
2023-05-21T08:41:35.846Z,100.19
2023-05-21T08:42:37.586Z,98.66
2023-05-21T08:43:35.817Z,97.52
2023-05-21T08:44:35.816Z,96.83
2023-05-21T08:45:35.913Z,99.07
2023-05-21T08:46:35.786Z,99.11
2023-05-21T08:47:35.819Z,97.36
2023-05-21T08:48:35.867Z,98.31
2023-05-21T08:49:35.934Z,99.03
2023-05-21T08:50:35.759Z,97.49
2023-05-21T08:51:35.752Z,97.72
2023-05-21T08:52:35.752Z,96.12
2023-05-21T08:53:35.747Z,94.51
2023-05-21T08:54:35.767Z,96.20
2023-05-21T08:55:35.871Z,96.69
2023-05-21T08:56:35.842Z,97.85
2023-05-21T08:57:35.728Z,100.99
2023-05-21T08:58:35.699Z,99.17
2023-05-21T08:59:35.748Z,97.32
2023-05-21T09:00:35.693Z,100.77
2023-05-21T09:01:35.737Z,96.54
2023-05-21T09:02:35.717Z,98.91
2023-05-21T09:03:35.703Z,98.68
2023-05-21T09:04:35.700Z,100.60
2023-05-21T09:05:35.797Z,100.50
2023-05-21T09:06:35.668Z,100.74
2023-05-21T09:07:35.673Z,98.55
2023-05-21T09:08:35.632Z,98.64
2023-05-21T09:09:35.699Z,93.96
2023-05-21T09:10:43.586Z,97.89
2023-05-21T09:11:35.621Z,98.31
2023-05-21T09:12:35.596Z,98.72
2023-05-21T09:13:37.526Z,97.83
2023-05-21T09:14:35.642Z,99.70
2023-05-21T09:15:35.777Z,97.69
2023-05-21T09:16:35.611Z,94.90
2023-05-21T09:17:35.609Z,97.09
2023-05-21T09:18:35.596Z,98.09
2023-05-21T09:19:35.751Z,93.45
2023-05-21T09:20:35.587Z,91.90
2023-05-21T09:21:35.594Z,92.14
2023-05-21T09:22:35.548Z,90.95
2023-05-21T09:23:35.551Z,92.65
2023-05-21T09:24:36.603Z,93.56
2023-05-21T09:25:35.693Z,93.21
2023-05-21T09:26:35.544Z,95.71
2023-05-21T09:27:35.519Z,96.21
2023-05-21T09:28:35.536Z,95.51
2023-05-21T09:29:35.511Z,94.33
2023-05-21T09:30:36.263Z,91.91
2023-05-21T09:31:35.519Z,89.80
2023-05-21T09:32:35.523Z,91.11
2023-05-21T09:33:35.465Z,90.26
2023-05-21T09:34:35.438Z,90.44
2023-05-21T09:35:36.247Z,89.32
2023-05-21T09:36:35.461Z,87.60
2023-05-21T09:37:35.448Z,91.78
2023-05-21T09:38:35.424Z,87.31
2023-05-21T09:39:35.422Z,86.90
2023-05-21T09:40:35.615Z,86.14
2023-05-21T09:41:35.413Z,85.08
2023-05-21T09:42:35.426Z,86.97
2023-05-21T09:43:35.407Z,88.61
2023-05-21T09:44:35.392Z,86.96
2023-05-21T09:45:35.534Z,87.36
2023-05-21T09:46:35.410Z,88.35
2023-05-21T09:47:35.451Z,89.22
2023-05-21T09:48:35.500Z,89.57
2023-05-21T09:49:35.524Z,89.98
2023-05-21T09:50:35.856Z,89.39
2023-05-21T09:51:35.640Z,91.93
2023-05-21T09:52:35.700Z,87.38
2023-05-21T09:53:35.717Z,87.47
2023-05-21T09:54:35.818Z,92.24
2023-05-21T09:55:35.876Z,89.54
2023-05-21T09:56:35.905Z,85.33
2023-05-21T09:57:35.987Z,87.96
2023-05-21T09:58:36.015Z,86.32
2023-05-21T09:59:36.107Z,85.51
2023-05-21T10:00:36.313Z,83.70
2023-05-21T10:01:36.302Z,86.87
2023-05-21T10:02:36.277Z,86.21
2023-05-21T10:03:36.334Z,84.01
2023-05-21T10:04:36.436Z,83.52
2023-05-21T10:05:36.409Z,83.93
2023-05-21T10:06:36.487Z,83.16
2023-05-21T10:07:36.519Z,84.40
2023-05-21T10:08:36.596Z,84.76
2023-05-21T10:09:36.625Z,84.32
2023-05-21T10:10:36.821Z,82.57
2023-05-21T10:11:36.795Z,80.73
2023-05-21T10:12:36.841Z,79.00
2023-05-21T10:13:36.922Z,83.40
2023-05-21T10:14:36.968Z,82.70
2023-05-21T10:15:37.013Z,79.46
2023-05-21T10:16:37.209Z,80.52
2023-05-21T10:17:37.165Z,80.25
2023-05-21T10:18:37.188Z,79.35
2023-05-21T10:19:37.274Z,79.46
2023-05-21T10:20:37.542Z,77.25
2023-05-21T10:21:37.431Z,78.49
2023-05-21T10:22:37.441Z,76.27
2023-05-21T10:23:37.521Z,80.28
2023-05-21T10:24:37.570Z,77.69
2023-05-21T10:25:37.654Z,78.09
2023-05-21T10:26:37.700Z,78.28
2023-05-21T10:27:37.799Z,77.75
2023-05-21T10:28:37.863Z,75.72
2023-05-21T10:29:37.932Z,76.67
2023-05-21T10:30:38.320Z,77.34
2023-05-21T10:31:37.997Z,75.62
2023-05-21T10:32:38.177Z,78.08
2023-05-21T10:33:38.235Z,76.89
2023-05-21T10:34:38.149Z,74.32
2023-05-21T10:35:38.539Z,73.42
2023-05-21T10:36:38.295Z,74.68
2023-05-21T10:37:38.361Z,72.64
2023-05-21T10:38:38.437Z,75.36
2023-05-21T10:39:38.487Z,71.75
2023-05-21T10:40:38.632Z,71.98
2023-05-21T10:41:38.593Z,73.33
2023-05-21T10:42:38.662Z,70.57
2023-05-21T10:43:38.693Z,74.34
2023-05-21T10:44:38.776Z,72.00
2023-05-21T10:45:38.908Z,70.85
2023-05-21T10:46:38.950Z,72.13
2023-05-21T10:47:38.994Z,68.73
2023-05-21T10:48:39.035Z,68.02
2023-05-21T10:49:39.107Z,67.14
2023-05-21T10:50:39.285Z,68.31
2023-05-21T10:51:39.234Z,69.77
2023-05-21T10:52:39.288Z,66.88
2023-05-21T10:53:39.396Z,67.22
2023-05-21T10:54:39.398Z,65.97
2023-05-21T10:55:39.452Z,67.50
2023-05-21T10:56:39.545Z,66.83
2023-05-21T10:57:39.583Z,67.57
2023-05-21T10:58:39.648Z,64.15
2023-05-21T10:59:39.755Z,66.17
2023-05-21T11:00:39.791Z,65.06
2023-05-21T11:01:40.012Z,62.69
2023-05-21T11:02:40.001Z,65.11
2023-05-21T11:03:39.996Z,66.18
2023-05-21T11:04:40.183Z,63.79
2023-05-21T11:05:40.105Z,65.20
2023-05-21T11:06:40.150Z,64.95
2023-05-21T11:07:40.239Z,63.39
2023-05-21T11:08:40.272Z,62.91
2023-05-21T11:09:40.335Z,61.74
2023-05-21T11:10:40.527Z,63.69
2023-05-21T11:11:40.491Z,62.76
2023-05-21T11:12:40.499Z,62.16
2023-05-21T11:13:40.564Z,60.71
2023-05-21T11:14:40.605Z,58.82
2023-05-21T11:15:40.672Z,60.93
2023-05-21T11:16:40.814Z,58.41
2023-05-21T11:17:40.860Z,58.03
2023-05-21T11:18:40.868Z,62.40
2023-05-21T11:19:41.075Z,61.01
2023-05-21T11:20:40.970Z,58.93
2023-05-21T11:21:41.025Z,58.80
2023-05-21T11:22:41.082Z,57.53
2023-05-21T11:23:41.126Z,58.10
2023-05-21T11:24:41.220Z,57.00
2023-05-21T11:25:41.274Z,56.67
2023-05-21T11:26:41.362Z,54.29
2023-05-21T11:27:41.405Z,54.40
2023-05-21T11:28:41.483Z,54.89
2023-05-21T11:29:41.546Z,54.90
2023-05-21T11:30:41.895Z,53.30
2023-05-21T11:31:41.763Z,53.76
2023-05-21T11:32:41.723Z,53.22
2023-05-21T11:33:41.950Z,55.98
2023-05-21T11:34:41.828Z,52.26
2023-05-21T11:35:41.898Z,49.14
2023-05-21T11:36:41.950Z,50.72
2023-05-21T11:37:42.059Z,51.37
2023-05-21T11:38:42.062Z,50.88
2023-05-21T11:39:42.126Z,50.34
2023-05-21T11:40:42.238Z,50.34
2023-05-21T11:41:42.267Z,46.63
2023-05-21T11:42:42.360Z,48.26
2023-05-21T11:43:42.354Z,48.39
2023-05-21T11:44:42.460Z,46.46
2023-05-21T11:45:42.513Z,49.94
2023-05-21T11:46:42.630Z,46.20
2023-05-21T11:47:42.695Z,46.54
2023-05-21T11:48:42.709Z,45.41
2023-05-21T11:49:42.753Z,47.06
2023-05-21T11:50:42.827Z,44.86
2023-05-21T11:51:42.861Z,44.38
2023-05-21T11:52:43.007Z,45.43
2023-05-21T11:53:44.310Z,46.00
2023-05-21T11:54:43.048Z,43.06
2023-05-21T11:55:43.105Z,42.07
2023-05-21T11:56:43.172Z,41.38
2023-05-21T11:57:43.238Z,45.64
2023-05-21T11:58:43.342Z,44.19
2023-05-21T11:59:43.368Z,40.49
2023-05-21T12:00:43.447Z,42.89
2023-05-21T12:01:43.509Z,41.07
2023-05-21T12:02:43.591Z,41.17
2023-05-21T12:03:43.724Z,40.96
2023-05-21T12:04:43.675Z,39.87
2023-05-21T12:05:43.740Z,39.10
2023-05-21T12:06:43.838Z,38.00
2023-05-21T12:07:43.822Z,38.20
2023-05-21T12:08:43.917Z,38.66
2023-05-21T12:09:43.983Z,38.66
2023-05-21T12:10:46.154Z,41.62
2023-05-21T12:11:44.104Z,40.83
2023-05-21T12:12:54.659Z,39.37
2023-05-21T12:13:45.142Z,39.60
2023-05-21T12:14:44.161Z,39.59
2023-05-21T12:15:44.170Z,40.00
2023-05-21T12:16:44.239Z,40.18
2023-05-21T12:17:44.176Z,37.63
2023-05-21T12:18:44.192Z,37.08
2023-05-21T12:19:44.107Z,37.76
2023-05-21T12:20:44.147Z,37.93
2023-05-21T12:21:44.197Z,40.27
2023-05-21T12:22:44.244Z,40.36
2023-05-21T12:23:44.321Z,39.31
2023-05-21T12:24:44.380Z,40.66
2023-05-21T12:25:44.432Z,38.52
2023-05-21T12:26:44.499Z,39.82
2023-05-21T12:27:44.621Z,39.65
2023-05-21T12:28:44.643Z,41.15
2023-05-21T12:29:44.714Z,40.97
2023-05-21T12:30:44.751Z,38.96
2023-05-21T12:31:44.858Z,39.63
2023-05-21T12:32:44.970Z,38.62
2023-05-21T12:33:44.925Z,40.45
2023-05-21T12:34:44.992Z,38.84
2023-05-21T12:35:45.110Z,41.99